Time;durP1;ratioP1;P1;durP2;ratioP2;P2;SDS_P1;SDS_P2;PMS_P1;PMS_P2;Temp;Humidity;BMP_temperature;BMP_pressure;BME280_temperature;BME280_humidity;BME280_pressure;Samples;Min_cycle;Max_cycle;Signal;HPM_P1;HPM_P2
2022/06/09 00:01:26;;;;;;;8.98;5.40;;;19.30;99.90;;;;;;5020198;28;20081;-50
2022/06/09 00:04:02;;;;;;;8.85;5.60;;;19.20;99.90;;;;;;5019347;28;20029;-50
2022/06/09 00:06:38;;;;;;;7.50;5.50;;;19.20;99.90;;;;;;5014223;28;20438;-49
2022/06/09 00:09:05;;;;;;;7.05;4.90;;;19.20;99.90;;;;;;5015205;28;20030;-50
2022/06/09 00:11:35;;;;;;;7.38;5.35;;;19.20;99.90;;;;;;5017879;28;20042;-49
2022/06/09 00:14:01;;;;;;;7.60;4.90;;;19.00;99.90;;;;;;5031513;28;20041;-50
2022/06/09 00:16:27;;;;;;;8.48;5.70;;;19.00;99.90;;;;;;5015500;28;20392;-50
2022/06/09 00:18:53;;;;;;;6.85;5.38;;;19.10;99.90;;;;;;5017408;28;20030;-51
2022/06/09 00:21:21;;;;;;;7.45;5.05;;;19.10;99.90;;;;;;5006293;28;20088;-49
2022/06/09 00:23:47;;;;;;;7.30;4.70;;;19.10;99.90;;;;;;5019576;28;20045;-50
2022/06/09 00:26:13;;;;;;;7.43;4.53;;;19.20;99.90;;;;;;5016384;28;20064;-50
2022/06/09 00:28:38;;;;;;;7.88;5.25;;;19.30;99.90;;;;;;5022741;28;20049;-52
2022/06/09 00:31:04;;;;;;;8.10;5.20;;;19.30;99.90;;;;;;5022495;28;20116;-51
2022/06/09 00:33:30;;;;;;;7.43;5.40;;;19.20;99.90;;;;;;5010358;28;20069;-50
2022/06/09 00:35:56;;;;;;;6.38;5.63;;;19.10;99.90;;;;;;5015595;28;20092;-52
2022/06/09 00:38:22;;;;;;;10.80;5.82;;;18.70;99.90;;;;;;5025577;28;20045;-51
2022/06/09 00:40:48;;;;;;;6.78;5.70;;;;;;;;;;5013606;28;20124;-49
2022/06/09 00:43:13;;;;;;;6.82;5.50;;;18.60;99.90;;;;;;5030437;28;20065;-51
2022/06/09 00:45:46;;;;;;;7.57;5.65;;;18.60;99.90;;;;;;4999564;28;20554;-50
2022/06/09 00:48:30;;;;;;;8.70;6.40;;;;;;;;;;5020346;28;20473;-50
2022/06/09 00:51:05;;;;;;;8.95;6.50;;;18.40;99.90;;;;;;5013408;28;20030;-51
2022/06/09 00:53:36;;;;;;;9.82;5.85;;;18.50;99.90;;;;;;5026252;28;20040;-49
2022/06/09 00:56:03;;;;;;;8.10;5.68;;;18.60;99.90;;;;;;5017125;28;20038;-50
2022/06/09 00:58:32;;;;;;;6.85;5.38;;;18.80;99.90;;;;;;5020259;28;20033;-51
2022/06/09 01:01:05;;;;;;;8.93;5.22;;;18.90;99.90;;;;;;5017042;28;20025;-51
2022/06/09 01:03:42;;;;;;;7.93;4.72;;;18.80;99.90;;;;;;5017421;28;20041;-51
2022/06/09 01:06:27;;;;;;;8.23;5.32;;;18.90;99.90;;;;;;5014601;28;20025;-51
2022/06/09 01:09:10;;;;;;;9.55;4.72;;;18.50;99.90;;;;;;5021715;28;20424;-51
2022/06/09 01:11:36;;;;;;;8.20;5.50;;;18.70;99.90;;;;;;5013724;28;20084;-52
2022/06/09 01:14:03;;;;;;;9.32;4.95;;;18.70;99.90;;;;;;5019283;28;20029;-48
2022/06/09 01:16:37;;;;;;;12.68;6.97;;;;;;;;;;5014343;28;20109;-50
2022/06/09 01:19:22;;;;;;;10.02;6.70;;;;;;;;;;5016209;28;20049;-50
2022/06/09 01:22:06;;;;;;;11.88;7.13;;;;;;;;;;5016287;28;20073;-49
2022/06/09 01:24:51;;;;;;;9.85;6.70;;;;;;;;;;5011554;28;20061;-52
2022/06/09 01:27:23;;;;;;;9.57;6.35;;;;;;;;;;5018384;28;20030;-49
2022/06/09 01:30:03;;;;;;;11.38;6.47;;;;;;;;;;5019731;28;20480;-51
2022/06/09 01:32:34;;;;;;;8.50;6.25;;;;;;;;;;5010134;28;20072;-49
2022/06/09 01:35:32;;;;;;;9.68;6.60;;;17.60;99.90;;;;;;5013146;28;20396;-48
2022/06/09 01:37:59;;;;;;;10.98;6.68;;;17.50;99.90;;;;;;5014068;28;20470;-50
2022/06/09 01:40:26;;;;;;;10.85;6.38;;;17.40;99.90;;;;;;5026549;28;20048;-50
2022/06/09 01:42:55;;;;;;;8.13;6.07;;;17.60;99.90;;;;;;5013503;28;20128;-47
2022/06/09 01:46:06;;;;;;;8.25;5.97;;;17.70;99.90;;;;;;5009030;28;20045;-49
2022/06/09 01:48:33;;;;;;;9.93;7.47;;;17.10;99.90;;;;;;4993822;28;20104;-50
2022/06/09 01:51:10;;;;;;;9.63;7.68;;;16.90;99.90;;;;;;4991763;28;20053;-49
2022/06/09 01:53:46;;;;;;;9.35;6.60;;;16.90;99.90;;;;;;4992928;28;20146;-50
2022/06/09 01:56:19;;;;;;;12.35;7.00;;;17.30;99.90;;;;;;4987517;28;20514;-48
2022/06/09 01:58:54;;;;;;;8.93;6.25;;;17.60;99.90;;;;;;4990994;28;20134;-47
2022/06/09 02:01:25;;;;;;;8.65;6.70;;;17.80;99.90;;;;;;4955681;28;20042;-47
2022/06/09 02:03:55;;;;;;;15.85;7.20;;;18.00;99.90;;;;;;4974477;28;20038;-50
2022/06/09 02:06:21;;;;;;;9.68;6.43;;;18.20;99.90;;;;;;4988977;28;20096;-48
2022/06/09 02:08:48;;;;;;;9.95;6.45;;;18.30;99.90;;;;;;4970995;28;20143;-47
2022/06/09 02:11:14;;;;;;;8.65;5.80;;;18.30;99.90;;;;;;4989988;28;20154;-50
2022/06/09 02:13:46;;;;;;;12.60;6.38;;;18.40;99.90;;;;;;4983138;28;20134;-49
2022/06/09 02:16:18;;;;;;;8.05;6.05;;;18.50;99.90;;;;;;4983467;28;20038;-51
2022/06/09 02:18:47;;;;;;;10.65;6.50;;;18.40;99.90;;;;;;4966664;28;20399;-47
2022/06/09 02:21:30;;;;;;;9.88;6.35;;;18.30;99.90;;;;;;4954445;28;20044;-48
2022/06/09 02:23:56;;;;;;;11.45;6.60;;;18.40;99.90;;;;;;4965933;28;20247;-47
2022/06/09 02:26:22;;;;;;;17.80;6.90;;;18.40;99.90;;;;;;4973921;28;20557;-48
2022/06/09 02:28:48;;;;;;;14.93;6.60;;;18.50;99.90;;;;;;4956454;28;20050;-50
2022/06/09 02:31:17;;;;;;;7.95;6.30;;;18.50;99.90;;;;;;4943477;28;20051;-49
2022/06/09 02:33:44;;;;;;;11.02;7.10;;;18.60;99.90;;;;;;4958134;28;20411;-52
2022/06/09 02:36:10;;;;;;;8.18;6.25;;;18.60;99.90;;;;;;4971848;28;20054;-50
2022/06/09 02:38:36;;;;;;;9.18;6.30;;;18.70;99.90;;;;;;4975243;28;20082;-50
2022/06/09 02:41:02;;;;;;;10.13;6.25;;;18.70;99.90;;;;;;4969466;28;20047;-51
2022/06/09 02:43:27;;;;;;;9.65;6.45;;;18.70;99.90;;;;;;4969348;28;20434;-49
2022/06/09 02:45:53;;;;;;;14.90;7.43;;;18.70;99.90;;;;;;4971855;28;20046;-51
2022/06/09 02:48:20;;;;;;;14.60;7.20;;;18.70;99.90;;;;;;4974719;28;20035;-51
2022/06/09 02:50:47;;;;;;;13.25;6.30;;;18.70;99.90;;;;;;5015451;28;20081;-50
2022/06/09 02:53:14;;;;;;;11.30;6.05;;;18.70;99.90;;;;;;5014412;28;20466;-52
2022/06/09 02:55:40;;;;;;;9.13;6.13;;;18.70;99.90;;;;;;5015489;28;20033;-49
2022/06/09 02:58:06;;;;;;;11.43;5.90;;;18.80;99.90;;;;;;5018467;28;20033;-48
2022/06/09 03:00:32;;;;;;;11.63;6.30;;;18.80;99.90;;;;;;5017843;28;20125;-50
2022/06/09 03:03:00;;;;;;;12.35;7.18;;;18.80;99.90;;;;;;5013965;28;20029;-50
2022/06/09 03:05:28;;;;;;;9.82;6.80;;;18.90;99.90;;;;;;5021212;28;20025;-54
2022/06/09 03:07:55;;;;;;;10.35;6.93;;;18.90;99.90;;;;;;5010889;28;20496;-53
2022/06/09 03:10:21;;;;;;;9.23;6.22;;;18.80;99.90;;;;;;5017601;28;20071;-51
2022/06/09 03:12:48;;;;;;;8.40;6.30;;;18.80;99.90;;;;;;5016642;28;20034;-50
2022/06/09 03:15:18;;;;;;;12.95;7.35;;;18.80;99.90;;;;;;5018611;28;20061;-53
2022/06/09 03:17:44;;;;;;;10.80;5.97;;;18.80;99.90;;;;;;5017806;28;20038;-54
2022/06/09 03:20:16;;;;;;;13.32;6.95;;;18.90;99.90;;;;;;5017467;28;20045;-49
2022/06/09 03:22:41;;;;;;;13.27;6.80;;;18.90;99.90;;;;;;5037213;28;20044;-52
2022/06/09 03:25:08;;;;;;;11.23;6.18;;;18.90;99.90;;;;;;5039170;28;20045;-50
2022/06/09 03:27:34;;;;;;;12.80;6.68;;;18.90;99.90;;;;;;5041001;28;20073;-48
2022/06/09 03:30:01;;;;;;;9.05;6.07;;;19.00;99.90;;;;;;4984582;28;20053;-49
2022/06/09 03:32:28;;;;;;;11.90;6.38;;;19.10;99.90;;;;;;5035502;28;20562;-48
2022/06/09 03:34:54;;;;;;;10.30;5.85;;;19.10;99.90;;;;;;5035249;28;20113;-48
2022/06/09 03:37:21;;;;;;;10.50;7.22;;;19.20;99.90;;;;;;5037112;28;20042;-48
2022/06/09 03:39:46;;;;;;;8.93;6.20;;;19.20;99.90;;;;;;5039414;28;20051;-50
2022/06/09 03:42:12;;;;;;;14.95;7.20;;;19.20;99.90;;;;;;4968536;28;20045;-50
2022/06/09 03:44:38;;;;;;;14.43;8.13;;;19.30;99.90;;;;;;5037897;28;20041;-48
2022/06/09 03:47:05;;;;;;;11.98;7.60;;;19.30;99.90;;;;;;5035649;28;20068;-52
2022/06/09 03:49:31;;;;;;;11.30;7.05;;;19.50;99.90;;;;;;4984529;28;20433;-49
2022/06/09 03:51:57;;;;;;;16.05;7.05;;;19.50;99.90;;;;;;5033601;28;20099;-50
2022/06/09 03:54:23;;;;;;;15.10;7.10;;;19.50;99.90;;;;;;4978444;28;20379;-51
2022/06/09 03:56:49;;;;;;;23.63;16.88;;;19.60;99.90;;;;;;5015793;28;20403;-51
2022/06/09 03:59:14;;;;;;;14.25;8.32;;;19.70;99.90;;;;;;5017922;28;20517;-48
2022/06/09 04:01:40;;;;;;;9.65;7.10;;;19.80;99.90;;;;;;5032026;28;20052;-52
2022/06/09 04:04:06;;;;;;;18.17;8.27;;;19.80;99.90;;;;;;5021013;28;20045;-50
2022/06/09 04:06:34;;;;;;;16.63;7.18;;;19.80;99.90;;;;;;5022722;28;20040;-49
2022/06/09 04:09:00;;;;;;;11.27;7.13;;;19.80;99.90;;;;;;5016207;28;20077;-51
2022/06/09 04:11:26;;;;;;;12.77;6.70;;;19.90;99.90;;;;;;5016177;28;20049;-50
2022/06/09 04:13:52;;;;;;;11.88;7.88;;;19.80;99.90;;;;;;5015438;28;20166;-49
2022/06/09 04:16:25;;;;;;;11.15;7.85;;;19.90;99.90;;;;;;4996157;28;20136;-48
2022/06/09 04:18:56;;;;;;;10.98;8.35;;;20.00;99.90;;;;;;5013162;28;20095;-48
2022/06/09 04:21:22;;;;;;;10.23;8.03;;;20.10;99.90;;;;;;5012849;28;20429;-49
2022/06/09 04:23:49;;;;;;;12.45;7.00;;;20.10;99.90;;;;;;4928301;28;20829;-49
2022/06/09 04:26:22;;;;;;;12.20;7.45;;;20.10;99.90;;;;;;5013863;28;20378;-51
2022/06/09 04:28:48;;;;;;;9.48;7.40;;;20.20;99.90;;;;;;5012387;28;20073;-51
2022/06/09 04:31:15;;;;;;;8.73;7.18;;;20.20;99.90;;;;;;5012404;28;20552;-49
2022/06/09 04:33:41;;;;;;;14.70;8.13;;;20.20;99.90;;;;;;4980775;28;20042;-52
2022/06/09 04:36:08;;;;;;;10.82;7.32;;;20.40;99.90;;;;;;5015787;28;20367;-51
2022/06/09 04:38:36;;;;;;;10.35;7.35;;;20.40;99.90;;;;;;5016467;28;20026;-50
2022/06/09 04:41:03;;;;;;;12.50;8.48;;;20.40;99.90;;;;;;5019971;28;20050;-51
2022/06/09 04:43:29;;;;;;;10.93;7.03;;;20.50;99.90;;;;;;5029441;28;20481;-51
2022/06/09 04:45:55;;;;;;;11.82;7.47;;;20.60;99.90;;;;;;5011236;28;20362;-51
2022/06/09 04:48:21;;;;;;;16.05;7.93;;;20.60;99.90;;;;;;5018072;28;20045;-50
2022/06/09 04:50:47;;;;;;;11.27;7.38;;;20.60;99.90;;;;;;5039707;28;20044;-51
2022/06/09 04:53:13;;;;;;;9.68;7.43;;;20.70;99.90;;;;;;4976243;28;20048;-51
2022/06/09 04:55:40;;;;;;;10.63;7.57;;;20.70;99.90;;;;;;4956197;28;20037;-50
2022/06/09 04:58:06;;;;;;;10.90;7.10;;;20.60;99.90;;;;;;5032806;28;20484;-49
2022/06/09 05:00:32;;;;;;;12.23;7.53;;;20.50;99.90;;;;;;4997104;28;20048;-52
2022/06/09 05:03:01;;;;;;;12.75;7.10;;;20.60;99.90;;;;;;4981947;28;20046;-52
2022/06/09 05:05:35;;;;;;;12.13;7.53;;;20.50;99.90;;;;;;5002527;28;20041;-51
2022/06/09 05:08:01;;;;;;;12.57;7.95;;;20.40;99.90;;;;;;5020930;28;20033;-51
2022/06/09 05:10:27;;;;;;;10.10;7.35;;;20.60;99.90;;;;;;5036097;28;20509;-52
2022/06/09 05:12:54;;;;;;;10.48;7.25;;;20.60;99.90;;;;;;5007261;28;20540;-50
2022/06/09 05:15:21;;;;;;;12.35;7.47;;;20.70;99.90;;;;;;5034480;28;20044;-51
2022/06/09 05:17:48;;;;;;;10.30;7.65;;;20.80;99.90;;;;;;5033855;28;20534;-50
2022/06/09 05:20:18;;;;;;;19.85;9.60;;;20.50;99.90;;;;;;5032293;28;20051;-49
2022/06/09 05:22:43;;;;;;;12.50;7.70;;;20.50;99.90;;;;;;5035061;28;20029;-51
2022/06/09 05:25:10;;;;;;;9.70;7.35;;;20.50;99.90;;;;;;5016384;28;20048;-48
2022/06/09 05:27:36;;;;;;;10.90;7.60;;;20.70;99.90;;;;;;4977312;28;20046;-50
2022/06/09 05:30:04;;;;;;;13.68;7.88;;;20.70;99.90;;;;;;5029621;28;20188;-51
2022/06/09 05:32:30;;;;;;;9.05;7.07;;;20.80;99.90;;;;;;5020188;28;20037;-51
2022/06/09 05:34:56;;;;;;;13.45;7.97;;;21.00;99.90;;;;;;5023138;28;20369;-49
2022/06/09 05:37:22;;;;;;;11.30;7.95;;;21.10;99.90;;;;;;5012865;28;20049;-51
2022/06/09 05:45:17;;;;;;;12.70;8.57;;;21.30;99.90;;;;;;5014148;28;20049;-51
2022/06/09 05:47:43;;;;;;;8.57;7.55;;;21.50;99.90;;;;;;5014195;28;20113;-51
2022/06/09 05:50:10;;;;;;;11.20;7.25;;;21.90;99.90;;;;;;5014107;28;20060;-50
2022/06/09 05:52:37;;;;;;;9.05;7.25;;;21.70;99.90;;;;;;5013846;28;20022;-52
2022/06/09 05:55:04;;;;;;;11.45;7.03;;;21.80;99.90;;;;;;5014549;28;20049;-52
2022/06/09 05:57:30;;;;;;;9.98;7.38;;;21.70;99.90;;;;;;5033796;28;20050;-53
2022/06/09 05:59:56;;;;;;;9.85;6.85;;;21.80;99.90;;;;;;5015940;28;20488;-52
2022/06/09 06:02:24;;;;;;;9.40;6.93;;;21.80;99.90;;;;;;5025708;28;20044;-50
2022/06/09 06:04:51;;;;;;;12.73;8.05;;;22.00;99.90;;;;;;5017711;28;20041;-50
2022/06/09 06:07:17;;;;;;;10.80;6.93;;;22.10;99.90;;;;;;5018066;28;20037;-50
2022/06/09 06:09:43;;;;;;;9.30;6.22;;;22.20;99.90;;;;;;5018691;28;20030;-51
2022/06/09 06:12:09;;;;;;;11.68;6.30;;;22.20;99.90;;;;;;5015892;28;20033;-52
2022/06/09 06:14:36;;;;;;;12.30;5.88;;;22.40;99.90;;;;;;4998613;28;20034;-51
2022/06/09 06:17:02;;;;;;;7.35;6.28;;;22.40;99.90;;;;;;5011039;28;20092;-49
2022/06/09 06:19:28;;;;;;;10.77;7.28;;;22.40;99.90;;;;;;4993580;28;20048;-52
2022/06/09 06:21:54;;;;;;;8.02;6.05;;;;;;;;;;4978828;28;20041;-51
2022/06/09 06:24:23;;;;;;;8.95;5.88;;;;;;;;;;5015751;28;20041;-51
2022/06/09 06:26:49;;;;;;;11.35;6.30;;;;;;;;;;5017260;28;20359;-52
2022/06/09 06:29:18;;;;;;;10.40;5.97;;;;;;;;;;5021338;28;20048;-49
2022/06/09 06:31:44;;;;;;;10.68;6.10;;;;;;;;;;5016093;28;20375;-50
2022/06/09 06:34:11;;;;;;;12.07;6.00;;;;;;;;;;5026544;28;20156;-50
2022/06/09 06:36:37;;;;;;;11.98;5.95;;;;;;;;;;5012447;28;20032;-52
2022/06/09 06:39:04;;;;;;;10.30;6.07;;;;;;;;;;5014009;28;20093;-53
2022/06/09 06:41:30;;;;;;;17.83;7.45;;;;;;;;;;5004735;28;20470;-52
2022/06/09 06:43:56;;;;;;;9.27;5.57;;;;;;;;;;5012474;28;20061;-50
2022/06/09 06:46:23;;;;;;;9.57;5.03;;;;;;;;;;5018971;28;20026;-49
2022/06/09 06:48:49;;;;;;;9.18;4.80;;;;;;;;;;5024284;28;20038;-50
2022/06/09 06:51:15;;;;;;;6.45;4.50;;;;;;;;;;5015706;28;20022;-51
2022/06/09 06:53:42;;;;;;;9.70;5.93;;;22.90;99.90;;;;;;5018496;28;20030;-53
2022/06/09 06:56:09;;;;;;;5.20;4.45;;;23.10;99.90;;;;;;5031530;28;20038;-50
2022/06/09 06:58:35;;;;;;;5.70;4.20;;;22.80;99.90;;;;;;5016874;28;20022;-50
2022/06/09 07:01:03;;;;;;;8.27;5.40;;;22.90;99.90;;;;;;5016756;28;20437;-50
2022/06/09 07:03:31;;;;;;;9.43;5.03;;;23.10;99.90;;;;;;5015752;28;20048;-50
2022/06/09 07:05:58;;;;;;;7.43;4.68;;;23.20;99.90;;;;;;5019148;28;20022;-51
2022/06/09 07:08:24;;;;;;;10.25;4.93;;;23.10;99.90;;;;;;5017248;28;20119;-51
2022/06/09 07:10:52;;;;;;;7.97;4.72;;;23.30;99.90;;;;;;5018270;28;20041;-51
2022/06/09 07:13:19;;;;;;;9.15;5.07;;;23.50;99.90;;;;;;5018271;28;20045;-51
2022/06/09 07:15:45;;;;;;;6.97;4.13;;;23.60;99.90;;;;;;5020738;28;20036;-52
2022/06/09 07:18:11;;;;;;;6.55;4.78;;;;;;;;;;5009601;28;20049;-54
2022/06/09 07:20:39;;;;;;;6.88;3.90;;;24.00;99.90;;;;;;5018754;28;20038;-47
2022/06/09 07:23:05;;;;;;;6.75;3.65;;;23.90;99.90;;;;;;5015078;28;20030;-56
2022/06/09 07:25:31;;;;;;;6.47;3.20;;;24.10;99.90;;;;;;4998177;28;20045;-49
2022/06/09 07:27:57;;;;;;;5.15;2.67;;;;;;;;;;5028456;28;20075;-48
2022/06/09 07:30:25;;;;;;;7.82;3.03;;;24.10;99.90;;;;;;5030472;28;20486;-53
2022/06/09 07:32:51;;;;;;;9.60;3.88;;;;;;;;;;5026181;28;20438;-47
2022/06/09 07:35:19;;;;;;;6.25;3.38;;;;;;;;;;5016735;28;20065;-51
2022/06/09 07:37:45;;;;;;;5.10;3.42;;;24.50;99.90;;;;;;5012973;28;20033;-49
2022/06/09 07:40:12;;;;;;;5.50;3.83;;;24.50;99.90;;;;;;5015344;28;20124;-50
2022/06/09 07:42:38;;;;;;;8.52;4.45;;;24.80;99.90;;;;;;5014581;28;20375;-57
2022/06/09 07:45:06;;;;;;;5.38;3.83;;;24.90;99.90;;;;;;5015394;28;20034;-49
2022/06/09 07:47:32;;;;;;;5.75;3.25;;;25.00;99.90;;;;;;5029508;28;20128;-50
2022/06/09 07:49:57;;;;;;;7.57;3.90;;;25.30;99.90;;;;;;5013518;28;20446;-50
2022/06/09 07:52:24;;;;;;;5.93;3.88;;;25.30;99.90;;;;;;5016226;28;20533;-48
2022/06/09 07:54:50;;;;;;;5.78;4.10;;;25.40;99.90;;;;;;5015915;28;20037;-50
2022/06/09 07:57:16;;;;;;;7.05;4.25;;;25.20;99.90;;;;;;4996743;28;20509;-48
2022/06/09 07:59:43;;;;;;;8.73;4.80;;;25.30;99.90;;;;;;4994683;28;20054;-51
2022/06/09 08:02:11;;;;;;;8.02;5.15;;;25.50;99.90;;;;;;5015332;28;20092;-49
2022/06/09 08:04:37;;;;;;;8.15;5.20;;;;;;;;;;5015225;28;20084;-51
2022/06/09 08:07:04;;;;;;;8.82;5.05;;;;;;;;;;5015120;28;20069;-48
2022/06/09 08:09:30;;;;;;;7.28;4.90;;;;;;;;;;5015685;28;20041;-52
2022/06/09 08:11:57;;;;;;;7.22;4.63;;;26.30;99.90;;;;;;5013523;28;20046;-49
2022/06/09 08:14:22;;;;;;;8.18;4.70;;;26.60;99.90;;;;;;5015775;28;20033;-50
2022/06/09 08:16:48;;;;;;;9.63;6.43;;;26.60;99.90;;;;;;5015168;28;20040;-48
2022/06/09 08:19:14;;;;;;;10.05;5.88;;;;;;;;;;5015417;28;20604;-52
2022/06/09 08:21:40;;;;;;;10.55;6.22;;;;;;;;;;5013347;28;20469;-56
2022/06/09 08:24:07;;;;;;;8.27;5.95;;;26.70;99.90;;;;;;5014739;28;20084;-50
2022/06/09 08:26:33;;;;;;;11.25;6.72;;;26.80;99.90;;;;;;5013296;28;20517;-50
2022/06/09 08:28:59;;;;;;;12.02;6.95;;;26.90;99.90;;;;;;5028526;28;20180;-50
2022/06/09 08:31:25;;;;;;;10.95;6.30;;;27.20;99.90;;;;;;4994048;28;20034;-48
2022/06/09 08:33:51;;;;;;;12.30;7.22;;;;;;;;;;4996069;28;20539;-50
2022/06/09 08:36:17;;;;;;;11.75;6.90;;;27.40;99.90;;;;;;5014975;28;20033;-56
2022/06/09 08:38:42;;;;;;;13.43;6.20;;;27.70;99.90;;;;;;5013686;28;20056;-54
2022/06/09 08:41:35;;;;;;;8.32;5.57;;;27.70;99.90;;;;;;5012768;28;20038;-53
2022/06/09 08:44:14;;;;;;;9.75;6.55;;;27.30;99.90;;;;;;5014091;28;20520;-49
2022/06/09 08:46:40;;;;;;;9.73;5.55;;;;;;;;;;5026251;28;20408;-50
2022/06/09 08:49:30;;;;;;;7.68;4.40;;;27.70;99.90;;;;;;5021312;28;20048;-50
2022/06/09 08:52:05;;;;;;;5.72;3.70;;;27.70;99.90;;;;;;4967896;28;20109;-51
2022/06/09 08:54:36;;;;;;;5.38;3.35;;;27.60;99.90;;;;;;4956381;28;20046;-49
2022/06/09 08:57:11;;;;;;;5.22;3.33;;;27.70;99.90;;;;;;4946397;28;20042;-52
2022/06/09 08:59:39;;;;;;;7.38;3.97;;;27.60;99.90;;;;;;4966338;28;20050;-52
2022/06/09 09:02:23;;;;;;;6.72;3.60;;;27.90;99.90;;;;;;4960591;28;20047;-52
2022/06/09 09:04:59;;;;;;;5.28;3.08;;;27.90;99.90;;;;;;4961630;28;20074;-53
2022/06/09 09:07:31;;;;;;;4.82;3.15;;;27.90;99.90;;;;;;4962995;28;20074;-53
2022/06/09 09:10:19;;;;;;;4.68;2.88;;;28.10;99.90;;;;;;4969965;28;20074;-54
2022/06/09 09:13:03;;;;;;;4.07;2.78;;;;;;;;;;4968666;28;20126;-54
2022/06/09 09:15:52;;;;;;;3.65;2.40;;;;;;;;;;4971874;28;20042;-54
2022/06/09 09:18:24;;;;;;;3.13;2.33;;;;;;;;;;4932820;29;20452;-53
2022/06/09 09:20:51;;;;;;;4.28;2.65;;;;;;;;;;4930671;29;20048;-54
2022/06/09 09:23:21;;;;;;;9.30;3.08;;;;;;;;;;4933393;29;20484;-49
2022/06/09 09:25:57;;;;;;;4.97;2.97;;;;;;;;;;4933267;29;20555;-52
2022/06/09 09:28:30;;;;;;;4.07;2.53;;;;;;;;;;4934719;28;20606;-55
2022/06/09 09:31:21;;;;;;;4.00;2.42;;;28.80;99.90;;;;;;4953412;28;20035;-58
2022/06/09 09:33:47;;;;;;;3.70;2.60;;;28.90;99.90;;;;;;4952704;29;20035;-58
2022/06/09 09:36:35;;;;;;;4.40;2.58;;;29.00;99.90;;;;;;4954267;29;20479;-56
2022/06/09 09:39:01;;;;;;;4.63;3.20;;;;;;;;;;4953534;29;20053;-53
2022/06/09 09:41:33;;;;;;;7.65;3.63;;;;;;;;;;4953717;29;20042;-56
2022/06/09 09:44:12;;;;;;;4.43;4.03;;;29.40;99.90;;;;;;4963543;28;20046;-59
2022/06/09 09:46:39;;;;;;;4.75;4.07;;;;;;;;;;4987698;28;20038;-50
2022/06/09 09:49:15;;;;;;;5.00;4.00;;;;;;;;;;5001376;28;20037;-57
2022/06/09 09:51:43;;;;;;;4.13;3.72;;;;;;;;;;5017295;28;20044;-55
2022/06/09 09:54:16;;;;;;;6.32;3.15;;;;;;;;;;5021081;28;20026;-53
2022/06/09 09:56:42;;;;;;;4.95;3.17;;;;;;;;;;5020326;28;20029;-53
2022/06/09 09:59:19;;;;;;;5.50;3.33;;;;;;;;;;5023353;28;20033;-55
2022/06/09 10:10:14;;;;;;;5.20;2.60;;;28.00;99.90;;;;;;5017702;28;20497;-52
2022/06/09 10:12:41;;;;;;;3.22;2.10;;;28.70;99.90;;;;;;5019319;28;20030;-55
2022/06/09 10:15:10;;;;;;;3.20;2.70;;;;;;;;;;5019870;28;20527;-50
2022/06/09 10:17:52;;;;;;;3.85;2.67;;;;;;;;;;5023899;28;20033;-54
2022/06/09 10:20:32;;;;;;;5.38;2.15;;;29.60;99.90;;;;;;5021880;28;20072;-56
2022/06/09 10:23:09;;;;;;;3.33;2.50;;;;;;;;;;5013209;28;20037;-57
2022/06/09 10:26:12;;;;;;;2.75;2.30;;;29.50;99.90;;;;;;5013683;28;20116;-53
2022/06/09 10:29:15;;;;;;;3.20;2.38;;;29.10;99.90;;;;;;5013622;28;20050;-53
2022/06/09 10:31:43;;;;;;;2.83;1.92;;;29.10;99.90;;;;;;5013844;28;20252;-56
2022/06/09 10:34:31;;;;;;;4.95;2.80;;;29.60;99.90;;;;;;5012307;28;20378;-48
2022/06/09 10:37:31;;;;;;;5.68;2.92;;;29.70;99.90;;;;;;5013595;28;20429;-52
2022/06/09 10:40:06;;;;;;;3.83;2.35;;;30.10;99.90;;;;;;5032774;28;20041;-54
2022/06/09 10:42:39;;;;;;;4.53;2.45;;;30.10;99.90;;;;;;5020945;28;20076;-54
2022/06/09 10:45:20;;;;;;;6.03;2.65;;;30.20;99.90;;;;;;5013473;28;20108;-53
2022/06/09 10:57:15;;;;;;;5.38;3.28;;;30.60;97.60;;;;;;5013369;28;20037;-53
2022/06/09 10:59:52;;;;;;;3.75;2.75;;;31.20;99.90;;;;;;5012891;28;20034;-53
2022/06/09 11:02:21;;;;;;;4.18;2.38;;;30.90;99.90;;;;;;5013409;28;20145;-52
2022/06/09 11:04:49;;;;;;;4.88;2.63;;;31.30;96.90;;;;;;5013233;28;20030;-49
2022/06/09 11:07:30;;;;;;;2.92;2.25;;;31.00;98.10;;;;;;5013244;28;20037;-52
2022/06/09 11:10:17;;;;;;;4.10;2.30;;;31.30;96.90;;;;;;5013685;28;20474;-54
2022/06/09 11:13:20;;;;;;;2.90;2.35;;;31.40;96.40;;;;;;5013526;28;20421;-54
2022/06/09 11:15:52;;;;;;;3.17;2.20;;;31.40;95.70;;;;;;5011466;28;20021;-52
2022/06/09 11:18:35;;;;;;;2.70;2.10;;;31.30;94.70;;;;;;5013032;28;20482;-54
2022/06/09 11:21:37;;;;;;;3.65;2.15;;;32.10;96.50;;;;;;5013044;28;20038;-55
2022/06/09 11:24:39;;;;;;;3.30;1.85;;;32.60;94.80;;;;;;4988856;28;20046;-53
2022/06/09 11:27:19;;;;;;;3.53;2.05;;;32.90;94.30;;;;;;4990050;28;20089;-52
2022/06/09 11:30:16;;;;;;;2.20;1.80;;;32.80;95.00;;;;;;4991201;28;20045;-53
2022/06/09 11:33:03;;;;;;;7.22;3.30;;;32.80;94.10;;;;;;4963849;28;20047;-53
2022/06/09 11:35:37;;;;;;;3.95;2.38;;;32.40;93.70;;;;;;4983110;28;20518;-53
2022/06/09 11:38:10;;;;;;;2.20;1.98;;;;;;;;;;4988063;28;20033;-55
2022/06/09 11:41:05;;;;;;;2.25;1.90;;;31.50;99.90;;;;;;4986208;28;20563;-52
2022/06/09 11:44:00;;;;;;;6.22;3.17;;;;;;;;;;4994899;28;20486;-55
2022/06/09 11:46:30;;;;;;;3.83;1.75;;;;;;;;;;4917986;29;20472;-54
2022/06/09 11:48:59;;;;;;;2.70;2.10;;;;;;;;;;4918073;29;20139;-51
2022/06/09 11:51:27;;;;;;;3.88;1.88;;;31.30;99.90;;;;;;4917630;29;20104;-52
2022/06/09 11:53:58;;;;;;;4.85;2.40;;;31.10;99.90;;;;;;4917703;29;20036;-55
2022/06/09 11:56:45;;;;;;;5.38;2.03;;;31.20;99.90;;;;;;4917890;29;20056;-51
2022/06/09 11:59:43;;;;;;;3.45;2.05;;;31.40;99.90;;;;;;4917544;29;20042;-54
2022/06/09 12:02:21;;;;;;;2.58;1.90;;;31.40;99.90;;;;;;4916589;29;20564;-54
2022/06/09 12:04:48;;;;;;;2.78;1.80;;;;;;;;;;4917602;29;20530;-48
2022/06/09 12:07:45;;;;;;;5.20;2.40;;;31.30;99.90;;;;;;4917715;29;20055;-53
2022/06/09 12:10:23;;;;;;;4.00;1.73;;;31.20;99.90;;;;;;4917678;29;20106;-51
2022/06/09 12:13:22;;;;;;;2.83;1.50;;;31.10;99.90;;;;;;4917647;29;20036;-52
2022/06/09 12:16:00;;;;;;;2.83;1.63;;;31.60;99.90;;;;;;4917416;29;20040;-50
2022/06/09 12:18:35;;;;;;;2.72;1.52;;;31.30;99.90;;;;;;4917463;29;20044;-50
2022/06/09 12:21:01;;;;;;;2.30;1.60;;;;;;;;;;4917347;29;20543;-52
2022/06/09 12:23:32;;;;;;;3.53;1.63;;;30.80;99.90;;;;;;4961155;28;20065;-51
2022/06/09 12:26:10;;;;;;;2.90;1.55;;;30.20;93.30;;;;;;4990933;28;20035;-48
2022/06/09 12:28:58;;;;;;;1.88;1.67;;;30.40;93.40;;;;;;4974518;28;20129;-50
2022/06/09 12:31:36;;;;;;;3.15;1.67;;;30.90;93.80;;;;;;5016222;28;20112;-52
2022/06/09 12:34:06;;;;;;;3.92;2.05;;;30.90;93.20;;;;;;5015600;28;20084;-51
2022/06/09 12:36:47;;;;;;;3.33;2.25;;;30.60;93.40;;;;;;5015330;28;20087;-45
2022/06/09 12:39:26;;;;;;;2.88;1.60;;;30.50;93.30;;;;;;5015498;28;20540;-52
2022/06/09 12:42:01;;;;;;;2.28;1.50;;;30.00;93.80;;;;;;5015785;28;20033;-52
2022/06/09 12:44:38;;;;;;;1.88;1.70;;;29.80;94.20;;;;;;5026711;28;20500;-47
2022/06/09 12:47:23;;;;;;;4.00;1.40;;;29.80;94.40;;;;;;5035138;28;20032;-49
2022/06/09 12:49:56;;;;;;;2.13;1.50;;;29.50;94.10;;;;;;5028910;28;20034;-50
2022/06/09 12:52:32;;;;;;;1.88;1.40;;;29.20;93.80;;;;;;5015333;28;20034;-48
2022/06/09 12:55:06;;;;;;;2.78;1.42;;;29.30;94.30;;;;;;5013693;28;20390;-51
2022/06/09 12:57:35;;;;;;;4.72;1.30;;;29.90;94.50;;;;;;5011948;28;20115;-50
2022/06/09 13:00:16;;;;;;;3.35;1.50;;;29.90;94.20;;;;;;5012263;28;20411;-49
2022/06/09 13:02:43;;;;;;;3.63;1.55;;;30.10;93.70;;;;;;5013256;28;20045;-48
2022/06/09 13:05:36;;;;;;;3.08;1.75;;;30.50;94.00;;;;;;4996649;28;20113;-49
2022/06/09 13:08:14;;;;;;;6.18;1.88;;;30.60;93.40;;;;;;5012892;28;20104;-50
2022/06/09 13:10:44;;;;;;;2.70;1.67;;;30.60;93.20;;;;;;4993041;28;20544;-50
2022/06/09 13:13:16;;;;;;;4.05;1.80;;;30.30;93.40;;;;;;5020684;28;20481;-50
2022/06/09 13:15:45;;;;;;;4.15;2.60;;;30.20;93.80;;;;;;5023179;28;20053;-50
2022/06/09 13:18:19;;;;;;;3.28;1.60;;;30.20;93.20;;;;;;5017728;28;20477;-48
2022/06/09 13:20:47;;;;;;;4.30;2.72;;;30.60;93.60;;;;;;4996775;28;20076;-49
2022/06/09 13:23:14;;;;;;;6.40;2.67;;;30.60;93.10;;;;;;4979333;28;20497;-52
2022/06/09 13:25:43;;;;;;;3.05;2.10;;;30.90;93.80;;;;;;5010808;28;20065;-48
2022/06/09 13:28:28;;;;;;;3.92;2.13;;;30.30;93.20;;;;;;5019995;28;20069;-49
2022/06/09 13:30:54;;;;;;;4.93;1.45;;;30.40;94.10;;;;;;5020087;28;20030;-48
2022/06/09 13:33:46;;;;;;;41.63;5.50;;;30.40;93.30;;;;;;5022654;28;20028;-50
2022/06/09 13:36:21;;;;;;;56.72;8.25;;;;;;;;;;5021816;28;20030;-49
2022/06/09 13:38:47;;;;;;;2.45;1.50;;;29.80;92.90;;;;;;5019549;28;20038;-49
2022/06/09 13:41:19;;;;;;;24.92;3.78;;;29.50;99.90;;;;;;5021065;28;20069;-49
2022/06/09 13:43:52;;;;;;;13.02;2.65;;;29.90;97.30;;;;;;5023626;28;20197;-49
2022/06/09 13:46:24;;;;;;;16.73;2.72;;;29.60;96.50;;;;;;5019794;28;20022;-48
2022/06/09 13:49:03;;;;;;;2.45;1.67;;;29.80;96.30;;;;;;5000664;28;20128;-49